createdAt,value
2018-11-12T00:01:28.431Z,2.93
2018-11-12T00:03:56.776Z,2.53
2018-11-12T00:06:25.111Z,4.03
2018-11-12T00:08:53.425Z,2.20
2018-11-12T00:11:21.812Z,2.77
2018-11-12T00:13:50.183Z,2.40
2018-11-12T00:16:18.528Z,2.60
2018-11-12T00:18:46.856Z,3.80
2018-11-12T00:21:15.129Z,2.93
2018-11-12T00:23:43.537Z,3.10
2018-11-12T00:26:11.835Z,4.53
2018-11-12T00:28:40.122Z,2.60
2018-11-12T00:31:08.417Z,2.60
2018-11-12T00:33:36.679Z,2.50
2018-11-12T00:36:05.056Z,2.50
2018-11-12T00:38:33.379Z,5.83
2018-11-12T00:41:02.851Z,3.07
2018-11-12T00:43:31.161Z,2.57
2018-11-12T00:45:59.458Z,2.77
2018-11-12T00:48:27.929Z,4.83
2018-11-12T00:50:56.335Z,2.80
2018-11-12T00:53:24.775Z,2.40
2018-11-12T00:55:53.126Z,3.10
2018-11-12T00:58:21.492Z,2.00
2018-11-12T01:00:49.849Z,2.47
2018-11-12T01:03:18.170Z,2.53
2018-11-12T01:05:46.504Z,2.70
2018-11-12T01:08:14.787Z,5.20
2018-11-12T01:10:43.128Z,3.30
2018-11-12T01:13:11.521Z,4.00
2018-11-12T01:15:39.865Z,2.97
2018-11-12T01:18:08.190Z,2.60
2018-11-12T01:20:36.581Z,3.13
2018-11-12T01:23:05.267Z,3.50
2018-11-12T01:25:34.156Z,2.60
2018-11-12T01:28:02.554Z,2.90
2018-11-12T01:30:30.849Z,2.97
2018-11-12T01:32:59.211Z,2.63
2018-11-12T01:35:28.027Z,3.03
2018-11-12T01:37:56.488Z,2.73
2018-11-12T01:40:24.849Z,4.53
2018-11-12T01:42:53.274Z,2.70
2018-11-12T01:45:21.658Z,3.27
2018-11-12T01:47:50.811Z,2.73
2018-11-12T01:50:19.787Z,4.03
2018-11-12T01:52:48.853Z,3.50
2018-11-12T01:55:18.306Z,2.77
2018-11-12T01:57:46.817Z,3.07
2018-11-12T02:00:17.341Z,2.33
2018-11-12T02:02:47.877Z,3.23
2018-11-12T02:05:16.529Z,2.60
2018-11-12T02:07:44.905Z,3.07
2018-11-12T02:10:14.309Z,2.50
2018-11-12T02:12:42.935Z,2.83
2018-11-12T02:15:15.366Z,3.27
2018-11-12T02:17:44.833Z,2.60
2018-11-12T02:20:14.275Z,3.30
2018-11-12T02:22:43.575Z,2.90
2018-11-12T02:25:12.574Z,2.97
2018-11-12T02:27:41.358Z,2.97
2018-11-12T02:30:22.600Z,5.00
2018-11-12T02:32:50.928Z,2.83
2018-11-12T02:35:19.339Z,2.97
2018-11-12T02:37:47.742Z,3.00
2018-11-12T02:40:16.058Z,2.73
2018-11-12T02:42:44.555Z,3.67
2018-11-12T02:45:13.831Z,2.90
2018-11-12T02:47:43.135Z,3.30
2018-11-12T02:50:14.325Z,3.00
2018-11-12T02:52:42.835Z,3.60
2018-11-12T02:55:15.859Z,2.50
2018-11-12T02:57:45.072Z,2.60
2018-11-12T03:00:17.673Z,2.80
2018-11-12T03:02:46.255Z,3.10
2018-11-12T03:05:14.682Z,2.90
2018-11-12T03:07:43.449Z,3.70
2018-11-12T03:10:14.760Z,3.70
2018-11-12T03:12:43.255Z,2.80
2018-11-12T03:15:12.739Z,2.80
2018-11-12T03:17:41.780Z,15.27
2018-11-12T03:20:12.295Z,3.60
2018-11-12T03:22:40.708Z,3.77
2018-11-12T03:25:10.751Z,4.27
2018-11-12T03:27:39.501Z,4.40
2018-11-12T03:30:09.591Z,3.20
2018-11-12T03:32:38.204Z,4.03
2018-11-12T03:35:07.376Z,4.13
2018-11-12T03:37:35.816Z,3.50
2018-11-12T03:40:04.259Z,4.60
2018-11-12T03:42:32.656Z,3.40
2018-11-12T03:45:00.933Z,3.90
2018-11-12T03:47:29.229Z,4.83
2018-11-12T03:49:57.588Z,3.73
2018-11-12T03:52:25.906Z,5.87
2018-11-12T03:54:54.261Z,4.10
2018-11-12T03:57:22.624Z,4.37
2018-11-12T03:59:51.005Z,3.40
2018-11-12T04:02:19.368Z,4.00
2018-11-12T04:04:47.719Z,6.60
2018-11-12T04:07:16.078Z,5.20
2018-11-12T04:09:44.427Z,3.43
2018-11-12T04:12:12.830Z,5.13
2018-11-12T04:14:41.179Z,5.53
2018-11-12T04:17:09.552Z,5.93
2018-11-12T04:19:37.868Z,7.13
2018-11-12T04:22:06.282Z,5.37
2018-11-12T04:24:34.711Z,9.60
2018-11-12T04:27:03.170Z,10.27
2018-11-12T04:29:31.527Z,10.57
2018-11-12T04:31:59.884Z,11.53
2018-11-12T04:34:28.355Z,8.33
2018-11-12T04:36:56.868Z,6.20
2018-11-12T04:39:25.150Z,4.53
2018-11-12T04:41:53.535Z,6.60
2018-11-12T04:44:22.162Z,7.63
2018-11-12T04:46:50.518Z,19.17
2018-11-12T04:49:18.847Z,6.60
2018-11-12T04:51:47.175Z,5.80
2018-11-12T04:54:15.519Z,7.00
2018-11-12T04:56:43.808Z,4.23
2018-11-12T04:59:12.218Z,3.93
2018-11-12T05:01:40.533Z,5.20
2018-11-12T05:04:08.829Z,5.57
2018-11-12T05:06:37.184Z,4.60
2018-11-12T05:09:07.854Z,4.87
2018-11-12T05:11:36.199Z,5.90
2018-11-12T05:14:04.586Z,5.07
2018-11-12T05:16:32.962Z,3.87
2018-11-12T05:19:01.252Z,4.63
2018-11-12T05:21:29.583Z,4.30
2018-11-12T05:23:57.930Z,6.53
2018-11-12T05:26:26.243Z,4.93
2018-11-12T05:28:54.470Z,4.37
2018-11-12T05:31:22.800Z,5.27
2018-11-12T05:33:51.094Z,4.67
2018-11-12T05:36:19.364Z,5.60
2018-11-12T05:38:47.678Z,5.90
2018-11-12T05:41:16.003Z,5.50
2018-11-12T05:43:44.330Z,4.47
2018-11-12T05:46:12.680Z,8.50
2018-11-12T05:48:41.041Z,8.50
2018-11-12T05:51:09.348Z,6.83
2018-11-12T05:53:40.725Z,8.20
2018-11-12T05:56:08.984Z,10.30
2018-11-12T05:58:37.326Z,11.40
2018-11-12T06:01:05.659Z,6.93
2018-11-12T06:03:33.999Z,12.63
2018-11-12T06:06:02.325Z,11.00
2018-11-12T06:08:30.677Z,15.10
2018-11-12T06:10:58.957Z,8.73
2018-11-12T06:13:27.261Z,6.70
2018-11-12T06:15:55.621Z,6.03
2018-11-12T06:18:23.970Z,7.70
2018-11-12T06:20:52.242Z,5.13
2018-11-12T06:23:20.600Z,7.20
2018-11-12T06:25:48.909Z,3.97
2018-11-12T06:28:17.262Z,4.97
2018-11-12T06:30:45.687Z,5.00
2018-11-12T06:33:14.031Z,7.63
2018-11-12T06:35:42.375Z,6.57
2018-11-12T06:38:10.663Z,7.77
2018-11-12T06:40:39.005Z,5.10
2018-11-12T06:43:07.383Z,7.30
2018-11-12T06:45:35.615Z,4.33
2018-11-12T06:48:04.659Z,5.47
2018-11-12T06:50:33.719Z,7.90
2018-11-12T06:53:02.785Z,6.80
2018-11-12T06:55:30.936Z,5.20
2018-11-12T06:57:59.215Z,7.63
2018-11-12T07:00:32.636Z,6.60
2018-11-12T07:03:01.021Z,7.13
2018-11-12T07:05:29.956Z,7.27
2018-11-12T07:07:58.379Z,9.10
2018-11-12T07:10:27.627Z,7.33
2018-11-12T07:12:56.897Z,7.57
2018-11-12T07:15:26.440Z,6.97
2018-11-12T07:17:54.715Z,7.43
2018-11-12T07:20:24.213Z,6.80
2018-11-12T07:22:52.804Z,5.93
2018-11-12T07:25:22.802Z,11.30
2018-11-12T07:27:50.952Z,13.33
2018-11-12T07:30:27.317Z,8.90
2018-11-12T07:33:05.059Z,8.33
2018-11-12T07:35:33.690Z,7.27
2018-11-12T07:38:01.947Z,5.10
2018-11-12T07:40:30.287Z,8.23
2018-11-12T07:42:58.718Z,6.60
2018-11-12T07:45:28.271Z,6.17
2018-11-12T07:47:57.179Z,6.50
2018-11-12T07:50:26.931Z,3.23
2018-11-12T07:52:56.805Z,4.20
2018-11-12T07:55:26.341Z,4.77
2018-11-12T07:57:55.386Z,3.73
2018-11-12T08:00:26.996Z,5.77
2018-11-12T08:03:01.475Z,3.63
2018-11-12T08:05:29.728Z,3.83
2018-11-12T08:07:58.016Z,3.50
2018-11-12T08:10:26.276Z,3.10
2018-11-12T08:12:54.592Z,4.13
2018-11-12T08:15:22.893Z,5.83
2018-11-12T08:17:51.205Z,3.80
2018-11-12T08:20:21.681Z,4.00
2018-11-12T08:22:50.755Z,6.53
2018-11-12T08:25:19.102Z,7.60
2018-11-12T08:27:47.896Z,4.23
2018-11-12T08:30:20.516Z,3.87
2018-11-12T08:32:50.306Z,4.70
2018-11-12T08:35:18.721Z,3.00
2018-11-12T08:37:47.520Z,5.40
2018-11-12T08:40:17.081Z,2.90
2018-11-12T08:42:45.437Z,3.10
2018-11-12T08:45:14.171Z,2.97
2018-11-12T08:47:43.692Z,2.73
2018-11-12T08:50:14.840Z,3.70
2018-11-12T08:52:44.254Z,5.57
2018-11-12T08:55:14.356Z,2.87
2018-11-12T08:57:44.103Z,4.00
2018-11-12T09:00:12.876Z,1.97
2018-11-12T09:02:41.473Z,2.90
2018-11-12T09:05:11.345Z,2.30
2018-11-12T09:07:40.555Z,4.20
2018-11-12T09:10:12.699Z,1.90
2018-11-12T09:12:41.839Z,4.13
2018-11-12T09:15:10.899Z,2.17
2018-11-12T09:17:40.218Z,4.03
2018-11-12T09:20:09.981Z,2.77
2018-11-12T09:22:38.639Z,1.87
2018-11-12T09:25:09.376Z,3.67
2018-11-12T09:27:37.655Z,2.80
2018-11-12T09:30:08.975Z,2.90
2018-11-12T09:32:37.331Z,6.07
2018-11-12T09:35:06.437Z,3.90
2018-11-12T09:40:03.116Z,4.63
2018-11-12T09:42:31.437Z,3.10
2018-11-12T09:44:59.719Z,2.20
2018-11-12T09:47:28.110Z,2.10
2018-11-12T09:49:56.429Z,2.30
2018-11-12T09:52:24.743Z,2.40
2018-11-12T09:54:53.169Z,3.10
2018-11-12T09:57:21.588Z,2.40
2018-11-12T09:59:49.915Z,4.10
2018-11-12T10:02:19.108Z,1.90
2018-11-12T10:04:47.758Z,2.33
2018-11-12T10:07:16.386Z,2.90
2018-11-12T10:09:45.844Z,2.63
2018-11-12T10:12:14.881Z,2.03
2018-11-12T10:14:42.991Z,2.50
2018-11-12T10:17:10.778Z,2.33
2018-11-12T10:19:36.582Z,4.73
2018-11-12T10:22:04.932Z,2.60
2018-11-12T10:24:33.212Z,2.83
2018-11-12T10:27:01.534Z,2.30
2018-11-12T10:29:29.855Z,2.70
2018-11-12T10:31:58.172Z,1.93
2018-11-12T10:34:26.456Z,3.80
2018-11-12T10:36:54.784Z,4.47
2018-11-12T10:39:23.138Z,2.30
2018-11-12T10:41:51.483Z,3.70
2018-11-12T10:44:19.857Z,2.97
2018-11-12T10:46:48.204Z,2.77
2018-11-12T10:49:16.571Z,2.73
2018-11-12T10:51:44.987Z,4.00
2018-11-12T10:54:13.488Z,2.90
2018-11-12T10:56:41.801Z,1.60
2018-11-12T10:59:10.129Z,1.80
2018-11-12T11:01:43.607Z,1.60
2018-11-12T11:04:17.105Z,3.23
2018-11-12T11:06:45.440Z,2.53
2018-11-12T11:09:13.772Z,2.50
2018-11-12T11:11:42.056Z,3.00
2018-11-12T11:14:10.432Z,3.10
2018-11-12T11:16:38.720Z,2.00
2018-11-12T11:19:07.758Z,2.50
2018-11-12T11:21:36.059Z,2.07
2018-11-12T11:24:04.504Z,2.13
2018-11-12T11:26:32.822Z,2.43
2018-11-12T11:29:01.088Z,2.43
2018-11-12T11:31:29.469Z,3.97
2018-11-12T11:33:57.893Z,4.13
2018-11-12T11:36:26.381Z,2.00
2018-11-12T11:38:54.942Z,2.70
2018-11-12T11:41:23.280Z,2.07
2018-11-12T11:43:51.757Z,2.10
2018-11-12T11:46:20.565Z,2.47
2018-11-12T11:48:50.653Z,2.40
2018-11-12T11:51:18.955Z,2.80
2018-11-12T11:53:47.400Z,3.53
2018-11-12T11:56:15.805Z,2.70
2018-11-12T11:58:44.239Z,3.20
2018-11-12T12:01:12.600Z,1.30
2018-11-12T12:03:40.905Z,2.80
2018-11-12T12:06:09.324Z,2.67
2018-11-12T12:08:37.721Z,1.47
2018-11-12T12:11:06.156Z,1.73
2018-11-12T12:13:34.636Z,1.77
2018-11-12T12:16:03.316Z,1.90
2018-11-12T12:18:31.707Z,2.30
2018-11-12T12:21:00.084Z,1.90
2018-11-12T12:23:28.415Z,2.30
2018-11-12T12:25:56.868Z,2.83
2018-11-12T12:28:25.267Z,2.10
2018-11-12T12:30:53.539Z,3.10
2018-11-12T12:33:21.922Z,3.10
2018-11-12T12:35:50.287Z,1.60
2018-11-12T12:38:18.628Z,2.73
2018-11-12T12:40:47.051Z,1.90
2018-11-12T12:43:15.448Z,1.57
2018-11-12T12:45:44.183Z,1.80
2018-11-12T12:48:12.312Z,2.90
2018-11-12T12:50:40.744Z,3.03
2018-11-12T12:53:09.086Z,3.20
2018-11-12T12:55:37.675Z,1.83
2018-11-12T12:58:06.106Z,3.07
2018-11-12T13:00:34.596Z,3.00
2018-11-12T13:03:03.733Z,4.70
2018-11-12T13:05:32.022Z,3.93
2018-11-12T13:08:00.354Z,2.00
2018-11-12T13:10:28.846Z,2.53
2018-11-12T13:12:57.203Z,2.70
2018-11-12T13:15:25.493Z,1.57
2018-11-12T13:17:53.872Z,2.70
2018-11-12T13:20:23.664Z,1.90
2018-11-12T13:22:51.967Z,1.60
2018-11-12T13:25:20.267Z,1.83
2018-11-12T13:27:49.205Z,2.43
2018-11-12T13:30:19.777Z,2.20
2018-11-12T13:32:48.331Z,1.67
2018-11-12T13:35:19.757Z,3.20
2018-11-12T13:37:48.104Z,2.00
2018-11-12T13:40:18.946Z,2.23
2018-11-12T13:42:48.829Z,2.30
2018-11-12T13:45:17.241Z,1.60
2018-11-12T13:47:46.126Z,1.57
2018-11-12T13:50:17.806Z,3.80
2018-11-12T13:52:49.832Z,1.67
2018-11-12T13:55:19.232Z,1.57
2018-11-12T13:57:47.643Z,1.33
2018-11-12T14:00:17.358Z,2.60
2018-11-12T14:02:46.699Z,1.50
2018-11-12T14:05:16.453Z,1.87
2018-11-12T14:07:45.349Z,3.07
2018-11-12T14:10:14.896Z,1.50
2018-11-12T14:12:43.813Z,1.40
2018-11-12T14:15:14.850Z,1.30
2018-11-12T14:17:43.431Z,1.60
2018-11-12T14:20:11.882Z,1.37
2018-11-12T14:22:40.378Z,1.70
2018-11-12T14:25:10.105Z,1.30
2018-11-12T14:27:38.549Z,1.20
2018-11-12T14:30:08.116Z,1.97
2018-11-12T14:32:36.429Z,2.00
2018-11-12T14:35:06.126Z,1.93
2018-11-12T14:37:34.826Z,1.77
2018-11-12T14:40:03.201Z,2.90
2018-11-12T14:42:31.596Z,1.93
2018-11-12T14:44:59.967Z,2.20
2018-11-12T14:47:28.333Z,3.57
2018-11-12T14:49:56.715Z,1.40
2018-11-12T14:52:25.099Z,1.30
2018-11-12T14:54:53.473Z,1.90
2018-11-12T14:57:21.744Z,1.43
2018-11-12T14:59:50.015Z,1.87
2018-11-12T15:02:18.352Z,1.20
2018-11-12T15:04:46.756Z,1.63
2018-11-12T15:07:15.231Z,2.83
2018-11-12T15:09:43.688Z,1.77
2018-11-12T15:12:12.020Z,1.70
2018-11-12T15:14:40.418Z,3.00
2018-11-12T15:17:08.717Z,1.57
2018-11-12T15:19:37.229Z,2.73
2018-11-12T15:22:05.784Z,2.23
2018-11-12T15:24:34.644Z,1.53
2018-11-12T15:27:03.399Z,1.73
2018-11-12T15:29:31.889Z,2.57
2018-11-12T15:32:00.196Z,2.67
2018-11-12T15:34:28.623Z,2.07
2018-11-12T15:36:57.144Z,6.00
2018-11-12T15:39:25.515Z,1.93
2018-11-12T15:41:53.900Z,2.63
2018-11-12T15:44:22.262Z,4.67
2018-11-12T15:46:50.737Z,3.70
2018-11-12T15:49:19.234Z,3.30
2018-11-12T15:51:47.627Z,1.80
2018-11-12T15:54:16.295Z,2.80
2018-11-12T15:56:44.681Z,2.60
2018-11-12T15:59:13.045Z,1.20
2018-11-12T16:01:41.505Z,1.97
2018-11-12T16:04:09.920Z,2.83
2018-11-12T16:06:38.395Z,3.17
2018-11-12T16:09:10.395Z,1.70
2018-11-12T16:11:38.776Z,1.90
2018-11-12T16:14:07.548Z,5.80
2018-11-12T16:16:36.109Z,1.93
2018-11-12T16:19:04.504Z,7.43
2018-11-12T16:21:32.920Z,2.60
2018-11-12T16:24:01.247Z,3.80
2018-11-12T16:26:29.668Z,3.80
2018-11-12T16:28:58.245Z,1.60
2018-11-12T16:31:36.977Z,1.60
2018-11-12T16:34:05.524Z,1.87
2018-11-12T16:36:34.001Z,1.50
2018-11-12T16:39:02.417Z,1.80
2018-11-12T16:41:30.816Z,2.00
2018-11-12T16:43:59.672Z,2.60
2018-11-12T16:46:28.108Z,2.33
2018-11-12T16:48:56.757Z,7.03
2018-11-12T16:51:25.170Z,1.63
2018-11-12T16:53:53.631Z,3.20
2018-11-12T16:56:21.975Z,4.00
2018-11-12T16:58:50.485Z,2.30
2018-11-12T17:01:18.824Z,3.00
2018-11-12T17:03:47.309Z,4.83
2018-11-12T17:06:15.796Z,3.00
2018-11-12T17:08:44.161Z,2.93
2018-11-12T17:11:12.593Z,3.00
2018-11-12T17:13:40.892Z,4.00
2018-11-12T17:16:09.361Z,3.60
2018-11-12T17:18:37.785Z,3.20
2018-11-12T17:21:06.274Z,3.67
2018-11-12T17:23:34.639Z,2.17
2018-11-12T17:26:02.948Z,2.40
2018-11-12T17:28:31.291Z,2.50
2018-11-12T17:30:59.745Z,5.33
2018-11-12T17:33:27.971Z,2.53
2018-11-12T17:35:56.333Z,2.30
2018-11-12T17:38:24.787Z,3.97
2018-11-12T17:40:53.176Z,2.63
2018-11-12T17:43:21.551Z,5.43
2018-11-12T17:45:49.861Z,2.87
2018-11-12T17:48:18.264Z,2.63
2018-11-12T17:50:46.598Z,3.17
2018-11-12T17:53:14.947Z,2.97
2018-11-12T17:55:43.306Z,3.00
2018-11-12T17:58:12.458Z,4.17
2018-11-12T18:00:40.921Z,5.47
2018-11-12T18:03:09.385Z,4.47
2018-11-12T18:05:37.745Z,5.13
2018-11-12T18:08:06.264Z,5.37
2018-11-12T18:10:34.587Z,3.47
2018-11-12T18:13:03.057Z,3.93
2018-11-12T18:15:31.426Z,3.70
2018-11-12T18:17:59.815Z,4.53
2018-11-12T18:20:28.616Z,3.83
2018-11-12T18:22:57.639Z,2.80
2018-11-12T18:25:26.070Z,3.20
2018-11-12T18:27:55.058Z,4.00
2018-11-12T18:30:25.090Z,3.77
2018-11-12T18:32:54.557Z,4.17
2018-11-12T18:35:22.932Z,4.03
2018-11-12T18:37:51.286Z,3.73
2018-11-12T18:40:21.047Z,5.07
2018-11-12T18:42:49.734Z,3.80
2018-11-12T18:45:19.583Z,3.83
2018-11-12T18:47:47.972Z,4.07
2018-11-12T18:50:19.594Z,3.93
2018-11-12T18:52:48.070Z,4.10
2018-11-12T18:55:16.440Z,3.37
2018-11-12T18:57:45.536Z,3.43
2018-11-12T19:00:15.533Z,2.60
2018-11-12T19:02:44.009Z,4.70
2018-11-12T19:05:14.314Z,4.40
2018-11-12T19:07:43.365Z,3.13
2018-11-12T19:10:14.606Z,4.20
2018-11-12T19:12:43.671Z,2.80
2018-11-12T19:15:14.451Z,4.37
2018-11-12T19:17:43.797Z,3.10
2018-11-12T19:20:12.216Z,3.80
2018-11-12T19:22:40.603Z,4.30
2018-11-12T19:25:09.971Z,3.13
2018-11-12T19:27:38.369Z,2.93
2018-11-12T19:30:10.299Z,2.87
2018-11-12T19:32:38.772Z,3.07
2018-11-12T19:35:08.565Z,2.33
2018-11-12T19:37:36.963Z,3.40
2018-11-12T19:40:06.589Z,3.03
2018-11-12T19:42:34.955Z,4.10
2018-11-12T19:45:03.559Z,2.43
2018-11-12T19:47:31.834Z,3.90
2018-11-12T19:50:00.175Z,2.70
2018-11-12T19:52:28.648Z,2.43
2018-11-12T19:54:57.035Z,2.47
2018-11-12T19:57:25.791Z,3.33
2018-11-12T19:59:54.158Z,2.73
2018-11-12T20:02:22.550Z,3.77
2018-11-12T20:04:50.936Z,2.37
2018-11-12T20:07:19.515Z,3.67
2018-11-12T20:09:48.114Z,3.27
2018-11-12T20:12:16.448Z,3.73
2018-11-12T20:14:44.773Z,2.80
2018-11-12T20:17:13.118Z,2.10
2018-11-12T20:19:41.480Z,2.53
2018-11-12T20:22:09.847Z,3.93
2018-11-12T20:24:38.211Z,2.63
2018-11-12T20:27:06.612Z,3.00
2018-11-12T20:29:35.023Z,2.37
2018-11-12T20:32:03.423Z,2.60
2018-11-12T20:34:31.823Z,2.53
2018-11-12T20:37:00.256Z,1.97
2018-11-12T20:39:28.757Z,2.30
2018-11-12T20:41:57.135Z,2.70
2018-11-12T20:44:25.690Z,2.40
2018-11-12T20:46:54.090Z,2.53
2018-11-12T20:49:22.453Z,2.60
2018-11-12T20:51:50.800Z,2.43
2018-11-12T20:54:19.228Z,3.10
2018-11-12T20:56:47.543Z,3.23
2018-11-12T20:59:15.879Z,2.20
2018-11-12T21:01:44.344Z,2.73
2018-11-12T21:04:12.749Z,2.87
2018-11-12T21:06:41.156Z,3.20
2018-11-12T21:09:12.496Z,2.93
2018-11-12T21:11:40.958Z,5.97
2018-11-12T21:14:09.386Z,4.00
2018-11-12T21:16:38.408Z,2.93
2018-11-12T21:19:07.626Z,3.10
2018-11-12T21:21:35.915Z,2.80
2018-11-12T21:24:04.265Z,3.30
2018-11-12T21:26:32.710Z,2.67
2018-11-12T21:29:01.098Z,2.20
2018-11-12T21:31:29.452Z,2.50
2018-11-12T21:33:58.965Z,3.73
2018-11-12T21:36:27.384Z,3.47
2018-11-12T21:38:55.955Z,3.07
2018-11-12T21:41:24.311Z,3.33
2018-11-12T21:43:52.924Z,3.27
2018-11-12T21:46:21.120Z,3.87
2018-11-12T21:48:49.525Z,2.73
2018-11-12T21:51:17.830Z,2.03
2018-11-12T21:53:46.218Z,3.10
2018-11-12T21:56:14.577Z,2.23
2018-11-12T21:58:42.972Z,2.63
2018-11-12T22:01:11.283Z,2.20
2018-11-12T22:03:39.612Z,2.50
2018-11-12T22:06:07.912Z,2.23
2018-11-12T22:08:36.329Z,2.50
2018-11-12T22:11:04.650Z,2.90
2018-11-12T22:13:32.990Z,3.13
2018-11-12T22:16:01.285Z,4.37
2018-11-12T22:18:29.730Z,2.30
2018-11-12T22:20:58.078Z,2.10
2018-11-12T22:23:26.421Z,3.13
2018-11-12T22:25:54.748Z,2.70
2018-11-12T22:28:23.196Z,2.47
2018-11-12T22:30:51.420Z,3.07
2018-11-12T22:33:19.780Z,2.60
2018-11-12T22:35:48.097Z,2.63
2018-11-12T22:38:16.407Z,5.40
2018-11-12T22:40:45.282Z,2.43
2018-11-12T22:43:13.645Z,4.70
2018-11-12T22:45:42.036Z,2.43
2018-11-12T22:48:10.335Z,4.17
2018-11-12T22:50:38.708Z,2.67
2018-11-12T22:53:07.082Z,7.77
2018-11-12T22:55:35.552Z,3.10
2018-11-12T22:58:03.961Z,2.90
2018-11-12T23:00:38.284Z,2.90
2018-11-12T23:03:07.316Z,3.60
2018-11-12T23:05:35.718Z,3.70
2018-11-12T23:08:04.123Z,2.73
2018-11-12T23:10:32.524Z,3.50
2018-11-12T23:13:00.853Z,3.37
2018-11-12T23:15:29.185Z,3.57
2018-11-12T23:17:57.536Z,2.83
2018-11-12T23:20:27.525Z,3.40
2018-11-12T23:22:55.890Z,7.87
2018-11-12T23:25:24.408Z,6.97
2018-11-12T23:27:53.358Z,4.63
2018-11-12T23:30:22.880Z,5.57
2018-11-12T23:32:51.227Z,5.17
2018-11-12T23:35:22.120Z,3.87
2018-11-12T23:37:50.807Z,6.60
2018-11-12T23:40:19.258Z,5.17
2018-11-12T23:42:47.962Z,4.50
2018-11-12T23:45:16.255Z,4.20
2018-11-12T23:47:44.621Z,4.30
2018-11-12T23:50:16.198Z,4.70
2018-11-12T23:52:45.316Z,4.43
2018-11-12T23:55:14.092Z,4.07
2018-11-12T23:57:42.763Z,4.70
